sensor_id;sensor_type;location;lat;lon;timestamp;pressure;altitude;pressure_sealevel;temperature;humidity
59337;BME280;45115;52.002;4.686;2022-07-24T00:01:06;101921.72;;;16.74;100.00
59337;BME280;45115;52.002;4.686;2022-07-24T00:03:33;101925.53;;;16.68;100.00
59337;BME280;45115;52.002;4.686;2022-07-24T00:05:59;101920.75;;;16.65;100.00
59337;BME280;45115;52.002;4.686;2022-07-24T00:08:26;101929.34;;;16.62;100.00
59337;BME280;45115;52.002;4.686;2022-07-24T00:10:52;101917.03;;;16.61;100.00
59337;BME280;45115;52.002;4.686;2022-07-24T00:13:20;101916.00;;;16.57;100.00
59337;BME280;45115;52.002;4.686;2022-07-24T00:15:47;101919.19;;;16.59;100.00
59337;BME280;45115;52.002;4.686;2022-07-24T00:18:17;101914.38;;;16.56;100.00
59337;BME280;45115;52.002;4.686;2022-07-24T00:20:44;101911.19;;;16.54;100.00
59337;BME280;45115;52.002;4.686;2022-07-24T00:23:11;101906.94;;;16.53;100.00
59337;BME280;45115;52.002;4.686;2022-07-24T00:25:38;101913.38;;;16.52;100.00
59337;BME280;45115;52.002;4.686;2022-07-24T00:28:04;101901.09;;;16.45;100.00
59337;BME280;45115;52.002;4.686;2022-07-24T00:30:32;101907.81;;;16.43;100.00
59337;BME280;45115;52.002;4.686;2022-07-24T00:32:59;101913.19;;;16.38;100.00
59337;BME280;45115;52.002;4.686;2022-07-24T00:35:25;101911.09;;;16.34;100.00
59337;BME280;45115;52.002;4.686;2022-07-24T00:37:52;101916.47;;;16.34;100.00
59337;BME280;45115;52.002;4.686;2022-07-24T00:40:18;101919.13;;;16.34;100.00
59337;BME280;45115;52.002;4.686;2022-07-24T00:42:45;101920.72;;;16.36;100.00
59337;BME280;45115;52.002;4.686;2022-07-24T00:45:12;101918.03;;;16.36;100.00
59337;BME280;45115;52.002;4.686;2022-07-24T00:47:39;101913.50;;;16.36;100.00
59337;BME280;45115;52.002;4.686;2022-07-24T00:50:07;101911.38;;;16.33;100.00
59337;BME280;45115;52.002;4.686;2022-07-24T00:52:34;101911.66;;;16.31;100.00
59337;BME280;45115;52.002;4.686;2022-07-24T00:55:00;101915.69;;;16.29;100.00
59337;BME280;45115;52.002;4.686;2022-07-24T00:57:27;101908.72;;;16.28;100.00
59337;BME280;45115;52.002;4.686;2022-07-24T00:59:54;101908.22;;;16.26;100.00
59337;BME280;45115;52.002;4.686;2022-07-24T01:02:20;101911.41;;;16.28;100.00
59337;BME280;45115;52.002;4.686;2022-07-24T01:04:48;101901.25;;;16.25;100.00
59337;BME280;45115;52.002;4.686;2022-07-24T01:07:15;101906.88;;;16.28;100.00
59337;BME280;45115;52.002;4.686;2022-07-24T01:09:43;101907.09;;;16.32;100.00
59337;BME280;45115;52.002;4.686;2022-07-24T01:12:10;101909.25;;;16.30;100.00
59337;BME280;45115;52.002;4.686;2022-07-24T01:14:36;101909.53;;;16.28;100.00
59337;BME280;45115;52.002;4.686;2022-07-24T01:17:04;101907.19;;;16.22;100.00
59337;BME280;45115;52.002;4.686;2022-07-24T01:19:30;101898.63;;;16.19;100.00
59337;BME280;45115;52.002;4.686;2022-07-24T01:21:58;101898.38;;;16.16;100.00
59337;BME280;45115;52.002;4.686;2022-07-24T01:24:25;101890.06;;;16.17;100.00
59337;BME280;45115;52.002;4.686;2022-07-24T01:26:52;101884.47;;;16.14;100.00
59337;BME280;45115;52.002;4.686;2022-07-24T01:29:18;101893.59;;;16.13;100.00
59337;BME280;45115;52.002;4.686;2022-07-24T01:31:45;101890.88;;;16.18;100.00
59337;BME280;45115;52.002;4.686;2022-07-24T01:34:12;101886.00;;;16.25;100.00
59337;BME280;45115;52.002;4.686;2022-07-24T01:36:38;101894.31;;;16.24;100.00
59337;BME280;45115;52.002;4.686;2022-07-24T01:39:06;101888.16;;;16.23;100.00
59337;BME280;45115;52.002;4.686;2022-07-24T01:41:33;101892.66;;;16.28;100.00
59337;BME280;45115;52.002;4.686;2022-07-24T01:44:00;101897.47;;;16.31;100.00
59337;BME280;45115;52.002;4.686;2022-07-24T01:46:26;101889.69;;;16.34;100.00
59337;BME280;45115;52.002;4.686;2022-07-24T01:48:53;101887.03;;;16.29;100.00
59337;BME280;45115;52.002;4.686;2022-07-24T01:51:19;101890.53;;;16.25;100.00
59337;BME280;45115;52.002;4.686;2022-07-24T01:53:46;101888.47;;;16.16;100.00
59337;BME280;45115;52.002;4.686;2022-07-24T01:56:14;101891.66;;;16.18;100.00
59337;BME280;45115;52.002;4.686;2022-07-24T01:58:41;101883.88;;;16.22;100.00
59337;BME280;45115;52.002;4.686;2022-07-24T02:01:08;101880.44;;;16.16;100.00
59337;BME280;45115;52.002;4.686;2022-07-24T02:03:34;101878.59;;;16.12;100.00
59337;BME280;45115;52.002;4.686;2022-07-24T02:06:01;101878.59;;;16.12;100.00
59337;BME280;45115;52.002;4.686;2022-07-24T02:08:27;101872.97;;;16.13;100.00
59337;BME280;45115;52.002;4.686;2022-07-24T02:10:54;101870.28;;;16.13;100.00
59337;BME280;45115;52.002;4.686;2022-07-24T02:13:22;101876.19;;;16.15;100.00
59337;BME280;45115;52.002;4.686;2022-07-24T02:15:51;101868.88;;;16.21;100.00
59337;BME280;45115;52.002;4.686;2022-07-24T02:18:17;101869.97;;;16.20;100.00
59337;BME280;45115;52.002;4.686;2022-07-24T02:20:44;101886.00;;;16.25;100.00
59337;BME280;45115;52.002;4.686;2022-07-24T02:23:11;101876.66;;;16.23;100.00
59337;BME280;45115;52.002;4.686;2022-07-24T02:25:43;101869.75;;;16.16;100.00
59337;BME280;45115;52.002;4.686;2022-07-24T02:28:10;101859.06;;;16.11;100.00
59337;BME280;45115;52.002;4.686;2022-07-24T02:30:38;101866.53;;;16.14;100.00
59337;BME280;45115;52.002;4.686;2022-07-24T02:33:04;101858.50;;;16.14;100.00
59337;BME280;45115;52.002;4.686;2022-07-24T02:35:31;101864.94;;;16.13;100.00
59337;BME280;45115;52.002;4.686;2022-07-24T02:37:58;101851.53;;;16.13;100.00
59337;BME280;45115;52.002;4.686;2022-07-24T02:40:24;101860.66;;;16.12;100.00
59337;BME280;45115;52.002;4.686;2022-07-24T02:42:51;101858.28;;;16.05;100.00
59337;BME280;45115;52.002;4.686;2022-07-24T02:45:17;101855.13;;;16.03;100.00
59337;BME280;45115;52.002;4.686;2022-07-24T02:47:49;101847.34;;;16.02;100.00
59337;BME280;45115;52.002;4.686;2022-07-24T02:50:16;101854.06;;;15.99;100.00
59337;BME280;45115;52.002;4.686;2022-07-24T02:52:43;101850.88;;;15.97;100.00
59337;BME280;45115;52.002;4.686;2022-07-24T02:55:10;101851.66;;;15.98;100.00
59337;BME280;45115;52.002;4.686;2022-07-24T02:57:37;101849.00;;;15.92;100.00
59337;BME280;45115;52.002;4.686;2022-07-24T03:00:04;101843.13;;;15.90;100.00
59337;BME280;45115;52.002;4.686;2022-07-24T03:02:32;101840.44;;;15.96;100.00
59337;BME280;45115;52.002;4.686;2022-07-24T03:05:00;101841.81;;;15.93;100.00
59337;BME280;45115;52.002;4.686;2022-07-24T03:07:27;101833.78;;;15.93;100.00
59337;BME280;45115;52.002;4.686;2022-07-24T03:09:54;101839.13;;;15.93;100.00
59337;BME280;45115;52.002;4.686;2022-07-24T03:12:21;101825.50;;;15.89;100.00
59337;BME280;45115;52.002;4.686;2022-07-24T03:14:47;101823.09;;;15.88;100.00
59337;BME280;45115;52.002;4.686;2022-07-24T03:17:14;101818.84;;;15.81;100.00
59337;BME280;45115;52.002;4.686;2022-07-24T03:19:41;101826.34;;;15.79;100.00
59337;BME280;45115;52.002;4.686;2022-07-24T03:22:09;101824.72;;;15.84;100.00
59337;BME280;45115;52.002;4.686;2022-07-24T03:24:35;101821.28;;;15.78;100.00
59337;BME280;45115;52.002;4.686;2022-07-24T03:27:02;101821.03;;;15.74;100.00
59337;BME280;45115;52.002;4.686;2022-07-24T03:29:29;101814.91;;;15.74;100.00
59337;BME280;45115;52.002;4.686;2022-07-24T03:31:55;101806.09;;;15.68;100.00
59337;BME280;45115;52.002;4.686;2022-07-24T03:34:22;101817.06;;;15.66;100.00
59337;BME280;45115;52.002;4.686;2022-07-24T03:36:49;101814.94;;;15.68;100.00
59337;BME280;45115;52.002;4.686;2022-07-24T03:39:17;101813.38;;;15.62;100.00
59337;BME280;45115;52.002;4.686;2022-07-24T03:41:43;101808.59;;;15.54;100.00
59337;BME280;45115;52.002;4.686;2022-07-24T03:44:10;101810.75;;;15.52;100.00
59337;BME280;45115;52.002;4.686;2022-07-24T03:46:37;101823.63;;;15.45;100.00
59337;BME280;45115;52.002;4.686;2022-07-24T03:49:03;101817.72;;;15.48;100.00
59337;BME280;45115;52.002;4.686;2022-07-24T03:51:31;101827.84;;;15.51;100.00
59337;BME280;45115;52.002;4.686;2022-07-24T03:54:00;101823.88;;;15.48;100.00
59337;BME280;45115;52.002;4.686;2022-07-24T03:56:28;101824.44;;;15.45;100.00
59337;BME280;45115;52.002;4.686;2022-07-24T03:58:55;101824.94;;;15.47;100.00
59337;BME280;45115;52.002;4.686;2022-07-24T04:01:23;101829.50;;;15.47;100.00
59337;BME280;45115;52.002;4.686;2022-07-24T04:03:49;101827.91;;;15.40;100.00
59337;BME280;45115;52.002;4.686;2022-07-24T04:06:16;101835.41;;;15.44;100.00
59337;BME280;45115;52.002;4.686;2022-07-24T04:08:43;101835.38;;;15.49;100.00
59337;BME280;45115;52.002;4.686;2022-07-24T04:11:10;101822.25;;;15.52;100.00
59337;BME280;45115;52.002;4.686;2022-07-24T04:13:38;101829.97;;;15.59;100.00
59337;BME280;45115;52.002;4.686;2022-07-24T04:16:05;101826.75;;;15.62;100.00
59337;BME280;45115;52.002;4.686;2022-07-24T04:18:31;101813.63;;;15.66;100.00
59337;BME280;45115;52.002;4.686;2022-07-24T04:20:58;101816.81;;;15.63;100.00
59337;BME280;45115;52.002;4.686;2022-07-24T04:23:25;101817.41;;;15.60;100.00
59337;BME280;45115;52.002;4.686;2022-07-24T04:25:51;101820.59;;;15.62;100.00
59337;BME280;45115;52.002;4.686;2022-07-24T04:28:18;101817.63;;;15.63;100.00
59337;BME280;45115;52.002;4.686;2022-07-24T04:30:46;101817.59;;;15.68;100.00
59337;BME280;45115;52.002;4.686;2022-07-24T04:33:13;101816.72;;;15.78;100.00
59337;BME280;45115;52.002;4.686;2022-07-24T04:35:39;101807.56;;;15.85;100.00
59337;BME280;45115;52.002;4.686;2022-07-24T04:38:06;101815.84;;;15.93;100.00
59337;BME280;45115;52.002;4.686;2022-07-24T04:40:33;101813.03;;;16.09;100.00
59337;BME280;45115;52.002;4.686;2022-07-24T04:42:59;101814.59;;;16.15;100.00
59337;BME280;45115;52.002;4.686;2022-07-24T04:45:26;101822.59;;;16.20;100.00
59337;BME280;45115;52.002;4.686;2022-07-24T04:47:54;101826.00;;;16.26;100.00
59337;BME280;45115;52.002;4.686;2022-07-24T04:50:21;101824.63;;;16.29;100.00
59337;BME280;45115;52.002;4.686;2022-07-24T04:52:53;101831.25;;;16.37;100.00
59337;BME280;45115;52.002;4.686;2022-07-24T04:55:20;101834.66;;;16.47;100.00
59337;BME280;45115;52.002;4.686;2022-07-24T04:57:46;101833.41;;;16.64;100.00
59337;BME280;45115;52.002;4.686;2022-07-24T05:00:14;101825.47;;;16.78;100.00
59337;BME280;45115;52.002;4.686;2022-07-24T05:02:40;101825.88;;;16.91;100.00
59337;BME280;45115;52.002;4.686;2022-07-24T05:05:09;101817.66;;;17.06;100.00
59337;BME280;45115;52.002;4.686;2022-07-24T05:07:35;101829.59;;;17.38;100.00
59337;BME280;45115;52.002;4.686;2022-07-24T05:10:03;101835.53;;;17.55;98.03
59337;BME280;45115;52.002;4.686;2022-07-24T05:12:29;101832.78;;;17.60;97.03
59337;BME280;45115;52.002;4.686;2022-07-24T05:14:56;101836.47;;;17.83;96.18
59337;BME280;45115;52.002;4.686;2022-07-24T05:17:23;101835.28;;;17.89;94.83
59337;BME280;45115;52.002;4.686;2022-07-24T05:19:49;101838.78;;;17.90;94.06
59337;BME280;45115;52.002;4.686;2022-07-24T05:22:17;101841.09;;;17.97;94.67
59337;BME280;45115;52.002;4.686;2022-07-24T05:24:44;101844.75;;;18.01;94.01
59337;BME280;45115;52.002;4.686;2022-07-24T05:27:10;101836.88;;;18.10;93.92
59337;BME280;45115;52.002;4.686;2022-07-24T05:29:37;101839.16;;;18.16;93.24
59337;BME280;45115;52.002;4.686;2022-07-24T05:32:04;101844.38;;;18.27;92.44
59337;BME280;45115;52.002;4.686;2022-07-24T05:34:31;101843.22;;;18.61;90.72
59337;BME280;45115;52.002;4.686;2022-07-24T05:36:58;101846.44;;;19.79;85.72
59337;BME280;45115;52.002;4.686;2022-07-24T05:39:26;101867.72;;;21.34;77.56
59337;BME280;45115;52.002;4.686;2022-07-24T05:41:52;101874.72;;;22.92;71.36
59337;BME280;45115;52.002;4.686;2022-07-24T05:44:19;101875.91;;;24.23;64.17
59337;BME280;45115;52.002;4.686;2022-07-24T05:46:45;101884.59;;;25.16;61.94
59337;BME280;45115;52.002;4.686;2022-07-24T05:49:12;101883.81;;;26.01;57.00
59337;BME280;45115;52.002;4.686;2022-07-24T05:51:39;101869.81;;;26.63;53.45
59337;BME280;45115;52.002;4.686;2022-07-24T05:54:05;101873.03;;;27.21;52.39
59337;BME280;45115;52.002;4.686;2022-07-24T05:56:33;101871.22;;;27.68;50.49
59337;BME280;45115;52.002;4.686;2022-07-24T05:59:00;101873.44;;;28.06;49.01
59337;BME280;45115;52.002;4.686;2022-07-24T06:01:26;101880.34;;;28.46;46.87
59337;BME280;45115;52.002;4.686;2022-07-24T06:03:53;101881.63;;;29.10;46.54
59337;BME280;45115;52.002;4.686;2022-07-24T06:06:20;101887.13;;;29.82;42.51
59337;BME280;45115;52.002;4.686;2022-07-24T06:08:46;101876.47;;;29.74;40.84
59337;BME280;45115;52.002;4.686;2022-07-24T06:11:13;101879.19;;;30.12;41.07
59337;BME280;45115;52.002;4.686;2022-07-24T06:13:41;101874.31;;;28.60;42.42
59337;BME280;45115;52.002;4.686;2022-07-24T06:16:07;101863.84;;;27.69;45.31
59337;BME280;45115;52.002;4.686;2022-07-24T06:18:34;101859.38;;;27.01;47.23
59337;BME280;45115;52.002;4.686;2022-07-24T06:21:01;101857.31;;;26.26;48.59
59337;BME280;45115;52.002;4.686;2022-07-24T06:23:28;101860.06;;;25.98;51.11
59337;BME280;45115;52.002;4.686;2022-07-24T06:25:54;101856.31;;;25.58;50.98
59337;BME280;45115;52.002;4.686;2022-07-24T06:28:21;101866.06;;;25.46;51.75
59337;BME280;45115;52.002;4.686;2022-07-24T06:30:49;101871.66;;;26.11;50.45
59337;BME280;45115;52.002;4.686;2022-07-24T06:33:16;101873.28;;;26.96;48.22
59337;BME280;45115;52.002;4.686;2022-07-24T06:35:43;101872.94;;;27.37;45.25
59337;BME280;45115;52.002;4.686;2022-07-24T06:38:09;101875.38;;;27.82;45.17
59337;BME280;45115;52.002;4.686;2022-07-24T06:40:37;101877.31;;;28.05;44.41
59337;BME280;45115;52.002;4.686;2022-07-24T06:43:04;101878.41;;;28.23;43.59
59337;BME280;45115;52.002;4.686;2022-07-24T06:45:31;101870.78;;;28.60;42.83
59337;BME280;45115;52.002;4.686;2022-07-24T06:47:59;101874.84;;;28.97;41.99
59337;BME280;45115;52.002;4.686;2022-07-24T06:50:26;101877.19;;;28.44;42.21
59337;BME280;45115;52.002;4.686;2022-07-24T06:52:53;101866.03;;;28.06;42.84
59337;BME280;45115;52.002;4.686;2022-07-24T06:55:20;101869.44;;;27.17;45.41
59337;BME280;45115;52.002;4.686;2022-07-24T06:57:46;101871.22;;;26.09;48.05
59337;BME280;45115;52.002;4.686;2022-07-24T07:00:14;101867.78;;;25.39;50.13
59337;BME280;45115;52.002;4.686;2022-07-24T07:02:42;101859.66;;;24.48;51.68
59337;BME280;45115;52.002;4.686;2022-07-24T07:05:10;101869.00;;;23.79;54.85
59337;BME280;45115;52.002;4.686;2022-07-24T07:07:38;101854.00;;;23.94;55.27
59337;BME280;45115;52.002;4.686;2022-07-24T07:10:06;101870.50;;;24.98;53.41
59337;BME280;45115;52.002;4.686;2022-07-24T07:12:33;101862.03;;;25.69;49.93
59337;BME280;45115;52.002;4.686;2022-07-24T07:15:00;101863.56;;;25.82;50.09
59337;BME280;45115;52.002;4.686;2022-07-24T07:17:26;101863.31;;;26.20;49.19
59337;BME280;45115;52.002;4.686;2022-07-24T07:19:53;101860.91;;;27.18;46.53
59337;BME280;45115;52.002;4.686;2022-07-24T07:22:21;101856.72;;;26.69;46.60
59337;BME280;45115;52.002;4.686;2022-07-24T07:24:48;101861.41;;;26.88;46.62
59337;BME280;45115;52.002;4.686;2022-07-24T07:27:14;101863.25;;;27.79;43.88
59337;BME280;45115;52.002;4.686;2022-07-24T07:29:41;101877.16;;;28.21;42.31
59337;BME280;45115;52.002;4.686;2022-07-24T07:32:08;101878.25;;;27.30;44.54
59337;BME280;45115;52.002;4.686;2022-07-24T07:34:34;101874.69;;;26.90;45.99
59337;BME280;45115;52.002;4.686;2022-07-24T07:37:01;101867.34;;;27.69;44.21
59337;BME280;45115;52.002;4.686;2022-07-24T07:39:29;101877.56;;;28.19;44.10
59337;BME280;45115;52.002;4.686;2022-07-24T07:41:56;101871.75;;;28.71;42.23
59337;BME280;45115;52.002;4.686;2022-07-24T07:44:22;101881.72;;;29.17;41.13
59337;BME280;45115;52.002;4.686;2022-07-24T07:46:49;101879.94;;;29.33;40.39
59337;BME280;45115;52.002;4.686;2022-07-24T07:49:15;101880.25;;;29.58;41.04
59337;BME280;45115;52.002;4.686;2022-07-24T07:51:42;101882.13;;;29.92;39.95
59337;BME280;45115;52.002;4.686;2022-07-24T07:54:12;101879.50;;;30.03;38.02
59337;BME280;45115;52.002;4.686;2022-07-24T07:56:40;101879.47;;;29.99;38.49
59337;BME280;45115;52.002;4.686;2022-07-24T07:59:07;101871.72;;;30.08;37.97
59337;BME280;45115;52.002;4.686;2022-07-24T08:01:34;101866.47;;;29.89;38.56
59337;BME280;45115;52.002;4.686;2022-07-24T08:04:00;101864.75;;;29.69;39.01
59337;BME280;45115;52.002;4.686;2022-07-24T08:06:27;101856.53;;;29.35;39.30
59337;BME280;45115;52.002;4.686;2022-07-24T08:08:54;101866.28;;;29.33;39.61
59337;BME280;45115;52.002;4.686;2022-07-24T08:11:20;101859.28;;;29.35;39.69
59337;BME280;45115;52.002;4.686;2022-07-24T08:13:48;101851.72;;;29.55;38.94
59337;BME280;45115;52.002;4.686;2022-07-24T08:16:15;101859.94;;;30.01;38.79
59337;BME280;45115;52.002;4.686;2022-07-24T08:18:41;101857.09;;;30.35;37.10
59337;BME280;45115;52.002;4.686;2022-07-24T08:21:08;101849.63;;;29.87;37.13
59337;BME280;45115;52.002;4.686;2022-07-24T08:23:35;101851.91;;;30.19;37.55
59337;BME280;45115;52.002;4.686;2022-07-24T08:26:01;101854.47;;;30.57;37.36
59337;BME280;45115;52.002;4.686;2022-07-24T08:28:28;101850.66;;;30.72;38.27
59337;BME280;45115;52.002;4.686;2022-07-24T08:30:56;101850.38;;;30.88;37.51
59337;BME280;45115;52.002;4.686;2022-07-24T08:33:23;101856.22;;;30.87;37.38
59337;BME280;45115;52.002;4.686;2022-07-24T08:35:49;101854.31;;;31.02;37.23
59337;BME280;45115;52.002;4.686;2022-07-24T08:38:16;101853.56;;;31.12;37.17
59337;BME280;45115;52.002;4.686;2022-07-24T08:40:44;101843.72;;;30.89;36.07
59337;BME280;45115;52.002;4.686;2022-07-24T08:43:11;101856.28;;;31.05;36.77
59337;BME280;45115;52.002;4.686;2022-07-24T08:45:40;101850.69;;;30.76;36.87
59337;BME280;45115;52.002;4.686;2022-07-24T08:48:10;101847.75;;;30.43;37.30
59337;BME280;45115;52.002;4.686;2022-07-24T08:50:38;101856.34;;;29.93;37.13
59337;BME280;45115;52.002;4.686;2022-07-24T08:53:06;101839.25;;;29.58;38.39
59337;BME280;45115;52.002;4.686;2022-07-24T08:55:32;101838.66;;;29.07;39.60
59337;BME280;45115;52.002;4.686;2022-07-24T08:58:00;101826.06;;;28.41;40.68
59337;BME280;45115;52.002;4.686;2022-07-24T09:00:29;101838.44;;;28.89;39.35
59337;BME280;45115;52.002;4.686;2022-07-24T09:02:56;101840.13;;;29.35;38.83
59337;BME280;45115;52.002;4.686;2022-07-24T09:05:24;101841.78;;;29.81;37.44
59337;BME280;45115;52.002;4.686;2022-07-24T09:08:06;101836.69;;;30.25;37.34
59337;BME280;45115;52.002;4.686;2022-07-24T09:10:33;101835.84;;;30.17;37.79
59337;BME280;45115;52.002;4.686;2022-07-24T09:13:12;101835.44;;;29.70;37.95
59337;BME280;45115;52.002;4.686;2022-07-24T09:15:43;101834.47;;;28.86;39.95
59337;BME280;45115;52.002;4.686;2022-07-24T09:18:24;101830.16;;;28.55;40.52
59337;BME280;45115;52.002;4.686;2022-07-24T09:20:53;101826.13;;;28.21;40.94
59337;BME280;45115;52.002;4.686;2022-07-24T09:23:19;101828.06;;;28.21;41.15
59337;BME280;45115;52.002;4.686;2022-07-24T09:25:50;101831.06;;;27.89;42.35
59337;BME280;45115;52.002;4.686;2022-07-24T09:28:17;101831.09;;;28.16;41.78
59337;BME280;45115;52.002;4.686;2022-07-24T09:30:45;101838.50;;;28.65;41.00
59337;BME280;45115;52.002;4.686;2022-07-24T09:33:18;101829.78;;;29.14;40.36
59337;BME280;45115;52.002;4.686;2022-07-24T09:35:48;101836.16;;;29.63;40.26
59337;BME280;45115;52.002;4.686;2022-07-24T09:38:18;101830.78;;;29.74;38.60
59337;BME280;45115;52.002;4.686;2022-07-24T09:40:47;101828.56;;;29.87;38.42
59337;BME280;45115;52.002;4.686;2022-07-24T09:43:24;101831.16;;;29.73;39.85
59337;BME280;45115;52.002;4.686;2022-07-24T09:45:58;101822.88;;;29.27;39.89
59337;BME280;45115;52.002;4.686;2022-07-24T09:48:33;101831.50;;;29.29;40.89
59337;BME280;45115;52.002;4.686;2022-07-24T09:51:02;101824.81;;;29.61;39.63
59337;BME280;45115;52.002;4.686;2022-07-24T09:53:32;101830.97;;;29.51;40.03
59337;BME280;45115;52.002;4.686;2022-07-24T09:56:01;101825.59;;;29.62;40.49
59337;BME280;45115;52.002;4.686;2022-07-24T09:58:30;101822.53;;;29.67;39.64
59337;BME280;45115;52.002;4.686;2022-07-24T10:00:58;101822.50;;;29.63;39.33
59337;BME280;45115;52.002;4.686;2022-07-24T10:03:28;101824.94;;;29.76;39.43
59337;BME280;45115;52.002;4.686;2022-07-24T10:05:57;101818.69;;;29.75;39.13
59337;BME280;45115;52.002;4.686;2022-07-24T10:08:24;101824.59;;;29.81;39.64
59337;BME280;45115;52.002;4.686;2022-07-24T10:10:57;101808.56;;;29.79;38.80
59337;BME280;45115;52.002;4.686;2022-07-24T10:13:24;101810.94;;;29.43;39.81
59337;BME280;45115;52.002;4.686;2022-07-24T10:16:03;101803.97;;;29.49;40.99
59337;BME280;45115;52.002;4.686;2022-07-24T10:18:45;101813.50;;;29.63;40.31
59337;BME280;45115;52.002;4.686;2022-07-24T10:21:15;101805.81;;;29.76;39.67
59337;BME280;45115;52.002;4.686;2022-07-24T10:24:09;101801.66;;;29.93;39.71
59337;BME280;45115;52.002;4.686;2022-07-24T10:26:39;101797.16;;;29.70;39.69
59337;BME280;45115;52.002;4.686;2022-07-24T10:29:12;101801.41;;;29.67;39.62
59337;BME280;45115;52.002;4.686;2022-07-24T10:31:40;101796.69;;;29.61;39.18
59337;BME280;45115;52.002;4.686;2022-07-24T10:34:12;101796.59;;;29.99;39.20
59337;BME280;45115;52.002;4.686;2022-07-24T10:36:44;101800.41;;;29.87;38.68
59337;BME280;45115;52.002;4.686;2022-07-24T10:39:20;101792.66;;;29.96;39.16
59337;BME280;45115;52.002;4.686;2022-07-24T10:42:05;101790.88;;;30.15;37.35
59337;BME280;45115;52.002;4.686;2022-07-24T10:44:32;101796.38;;;29.69;38.91
59337;BME280;45115;52.002;4.686;2022-07-24T10:47:02;101788.44;;;30.06;39.81
59337;BME280;45115;52.002;4.686;2022-07-24T10:49:47;101783.25;;;29.93;38.91
59337;BME280;45115;52.002;4.686;2022-07-24T10:52:23;101785.72;;;30.06;37.95
59337;BME280;45115;52.002;4.686;2022-07-24T10:55:23;101789.59;;;29.56;38.18
59337;BME280;45115;52.002;4.686;2022-07-24T10:57:56;101779.00;;;29.13;39.49
59337;BME280;45115;52.002;4.686;2022-07-24T11:00:26;101775.84;;;29.49;40.18
59337;BME280;45115;52.002;4.686;2022-07-24T11:03:00;101779.44;;;29.53;38.37
59337;BME280;45115;52.002;4.686;2022-07-24T11:05:33;101775.00;;;29.82;38.05
59337;BME280;45115;52.002;4.686;2022-07-24T11:11:05;101774.94;;;30.28;38.30
59337;BME280;45115;52.002;4.686;2022-07-24T11:13:41;101768.41;;;30.54;38.04
59337;BME280;45115;52.002;4.686;2022-07-24T11:16:17;101771.84;;;30.36;37.44
59337;BME280;45115;52.002;4.686;2022-07-24T11:22:02;101768.19;;;30.14;38.78
59337;BME280;45115;52.002;4.686;2022-07-24T11:24:29;101763.03;;;30.09;38.11
59337;BME280;45115;52.002;4.686;2022-07-24T11:26:56;101762.78;;;30.21;38.21
59337;BME280;45115;52.002;4.686;2022-07-24T11:29:26;101765.88;;;30.16;38.07
59337;BME280;45115;52.002;4.686;2022-07-24T11:31:55;101766.75;;;30.39;38.48
59337;BME280;45115;52.002;4.686;2022-07-24T11:34:26;101754.16;;;30.19;37.33
59337;BME280;45115;52.002;4.686;2022-07-24T11:36:54;101751.56;;;30.48;38.40
59337;BME280;45115;52.002;4.686;2022-07-24T11:39:26;101756.38;;;30.73;38.34
59337;BME280;45115;52.002;4.686;2022-07-24T11:41:55;101753.31;;;30.93;37.99
59337;BME280;45115;52.002;4.686;2022-07-24T11:44:25;101753.34;;;31.08;37.61
59337;BME280;45115;52.002;4.686;2022-07-24T11:46:57;101742.75;;;31.06;37.23
59337;BME280;45115;52.002;4.686;2022-07-24T11:49:25;101739.59;;;30.86;37.43
59337;BME280;45115;52.002;4.686;2022-07-24T11:51:54;101742.34;;;30.93;37.00
59337;BME280;45115;52.002;4.686;2022-07-24T11:54:23;101735.72;;;31.01;36.71
59337;BME280;45115;52.002;4.686;2022-07-24T11:56:50;101735.31;;;30.99;36.81
59337;BME280;45115;52.002;4.686;2022-07-24T11:59:28;101727.09;;;30.99;35.69
59337;BME280;45115;52.002;4.686;2022-07-24T12:01:56;101727.47;;;30.80;37.68
59337;BME280;45115;52.002;4.686;2022-07-24T12:04:28;101725.41;;;30.66;37.52
59337;BME280;45115;52.002;4.686;2022-07-24T12:06:55;101728.28;;;31.13;38.14
59337;BME280;45115;52.002;4.686;2022-07-24T12:09:22;101723.22;;;31.22;36.44
59337;BME280;45115;52.002;4.686;2022-07-24T12:11:49;101721.63;;;31.21;37.17
59337;BME280;45115;52.002;4.686;2022-07-24T12:14:18;101717.34;;;31.42;37.96
59337;BME280;45115;52.002;4.686;2022-07-24T12:16:52;101725.97;;;31.51;36.44
59337;BME280;45115;52.002;4.686;2022-07-24T12:19:21;101718.16;;;31.42;36.68
59337;BME280;45115;52.002;4.686;2022-07-24T12:21:50;101716.19;;;31.50;37.16
59337;BME280;45115;52.002;4.686;2022-07-24T12:24:19;101702.47;;;31.36;36.70
59337;BME280;45115;52.002;4.686;2022-07-24T12:26:53;101705.63;;;31.45;37.21
59337;BME280;45115;52.002;4.686;2022-07-24T12:29:20;101714.59;;;31.75;37.14
59337;BME280;45115;52.002;4.686;2022-07-24T12:31:47;101704.03;;;31.62;36.18
59337;BME280;45115;52.002;4.686;2022-07-24T12:34:16;101707.94;;;31.76;36.73
59337;BME280;45115;52.002;4.686;2022-07-24T12:36:43;101697.38;;;31.27;35.40
59337;BME280;45115;52.002;4.686;2022-07-24T12:39:11;101694.25;;;31.36;37.20
59337;BME280;45115;52.002;4.686;2022-07-24T12:41:43;101692.25;;;31.03;37.61
59337;BME280;45115;52.002;4.686;2022-07-24T12:44:10;101700.50;;;31.47;37.69
59337;BME280;45115;52.002;4.686;2022-07-24T12:46:38;101690.31;;;31.69;36.44
59337;BME280;45115;52.002;4.686;2022-07-24T12:49:06;101684.47;;;31.46;36.23
59337;BME280;45115;52.002;4.686;2022-07-24T12:51:52;101680.94;;;31.56;35.96
59337;BME280;45115;52.002;4.686;2022-07-24T12:54:20;101679.75;;;31.72;37.52
59337;BME280;45115;52.002;4.686;2022-07-24T12:56:49;101664.09;;;31.39;35.80